Main page
METAR-TAF:

METAR-TAF

Airports :

Kuressaare Airport

Kuressaare, Estonia

latitude: 58-13-48N, longitude: 022-30-34E, elevation: 4 m

Current weather observation

The report was made 22 minutes ago, at 03:50 UTC
Wind 6 kt from the East/Northeast
Temperature 10°C
Humidity 76%
Pressure 1012 hPa
Visibility 10 km or more

METAR: EEKE 030350Z AUTO 06006KT 9999NDV NCD 10/06 Q1012

Time: 07:12 (04:12 UTC)

Forecast

The report was made 14 hours and 12 minutes ago, at 14:00 UTC
Forecast valid from 02 at 15 UTC to 02 at 21 UTC
Wind 10 kt from the East
Visibility 10 km or more
no clouds below 1500 m and no cumulonimbus
Becoming
from 02 at 15 UTC to 02 at 17 UTC
Wind 8 kt from the Northeast

TAF: EEKE 021400Z 0215/0221 10010KT CAVOK BECMG 0215/0217 04008KT

Weather observations and forecasts of more than 4000 airports (METAR and TAF reports).

The available stations are represented by yellow and red dots on the map.

Hover mouse over dot to see the name of the station.

Then click to see weather observations and forecasts.

To change the map : click on the green buttons with a black cross to zoom in, on the green button with a dash to zoom out, or on the green arrows for adjacent maps.


METAR-TAF: